Time;durP1;ratioP1;P1;durP2;ratioP2;P2;SDS_P1;SDS_P2;PMS_P1;PMS_P2;Temp;Humidity;BMP_temperature;BMP_pressure;BME280_temperature;BME280_humidity;BME280_pressure;Samples;Min_cycle;Max_cycle;Signal;HPM_P1;HPM_P2
2022/03/17 04:06:47;;;;;;;;;6.00;6.00;;;;;;;;6465927;39;9545;-61
2022/03/17 04:12:50;;;;;;;;;12.50;10.50;;;;;;;;6492357;39;8949;-62
2022/03/17 13:09:39;;;;;;;;;24.50;21.50;;;;;;;;6495630;39;9040;-62
2022/03/17 13:15:50;;;;;;;;;18.00;15.75;;;;;;;;6492604;31;8932;-62
2022/03/17 13:22:06;;;;;;;;;36.75;31.25;;;;;;;;6492976;46;8821;-63
2022/03/17 13:28:15;;;;;;;;;29.25;26.50;;;;;;;;6492508;39;8903;-61
2022/03/17 13:34:28;;;;;;;;;21.25;18.75;;;;;;;;6492929;39;8871;-62
2022/03/17 13:40:48;;;;;;;;;21.00;21.00;;;;;;;;6492456;39;8873;-62
2022/03/17 13:46:51;;;;;;;;;22.75;19.50;;;;;;;;6492355;39;8839;-62
2022/03/17 13:53:03;;;;;;;;;17.00;14.75;;;;;;;;6492742;31;9078;-62
2022/03/17 13:59:07;;;;;;;;;19.25;16.50;;;;;;;;6491499;39;9127;-62
2022/03/17 14:05:14;;;;;;;;;20.00;15.75;;;;;;;;6492453;39;9531;-62
2022/03/17 14:11:22;;;;;;;;;24.33;21.00;;;;;;;;6493284;39;8865;-61
2022/03/17 14:17:26;;;;;;;;;17.00;15.25;;;;;;;;6492250;31;8959;-63
2022/03/17 14:29:50;;;;;;;;;33.75;29.25;;;;;;;;6492175;39;8963;-63
2022/03/17 14:35:53;;;;;;;;;22.00;19.25;;;;;;;;6491822;47;8873;-62
2022/03/17 14:41:56;;;;;;;;;21.00;18.25;;;;;;;;6492143;31;9016;-63
2022/03/17 14:47:58;;;;;;;;;24.75;21.75;;;;;;;;6491419;39;9533;-62
2022/03/17 14:54:03;;;;;;;;;25.75;25.75;;;;;;;;6493317;46;8902;-63
2022/03/17 15:00:06;;;;;;;;;17.25;14.75;;;;;;;;6493210;39;9604;-63
2022/03/17 15:06:11;;;;;;;;;20.50;14.00;;;;;;;;6494728;31;8892;-62
2022/03/17 15:12:15;;;;;;;;;20.00;17.75;;;;;;;;6493547;39;8895;-61
2022/03/17 15:18:19;;;;;;;;;35.00;29.50;;;;;;;;6493371;39;9527;-64
2022/03/17 15:24:22;;;;;;;;;22.75;20.25;;;;;;;;6494730;39;8992;-62
2022/03/17 15:30:25;;;;;;;;;16.00;14.75;;;;;;;;6494101;39;8899;-63
2022/03/17 15:36:27;;;;;;;;;14.75;13.00;;;;;;;;6494220;46;8839;-64
2022/03/17 15:42:31;;;;;;;;;15.50;14.25;;;;;;;;6492800;31;9006;-62
2022/03/17 15:48:34;;;;;;;;;15.00;14.00;;;;;;;;6492887;39;8891;-62
2022/03/17 15:54:36;;;;;;;;;15.25;14.00;;;;;;;;6491246;39;8903;-64
2022/03/17 16:00:39;;;;;;;;;16.67;10.33;;;;;;;;6491448;39;8913;-63
2022/03/17 16:06:42;;;;;;;;;14.25;13.25;;;;;;;;6492479;31;9026;-63
2022/03/17 16:19:07;;;;;;;;;17.50;16.25;;;;;;;;6492105;31;9055;-62
2022/03/17 16:25:09;;;;;;;;;19.75;18.00;;;;;;;;6491610;39;8847;-63
2022/03/17 16:31:23;;;;;;;;;21.00;17.25;;;;;;;;6491359;31;9650;-62
2022/03/17 16:37:25;;;;;;;;;21.25;18.75;;;;;;;;6492167;31;8922;-63
2022/03/17 16:43:31;;;;;;;;;19.00;19.00;;;;;;;;6490910;46;8977;-62
2022/03/17 16:49:33;;;;;;;;;27.50;25.25;;;;;;;;6492538;39;8883;-62
2022/03/17 16:55:39;;;;;;;;;27.50;23.75;;;;;;;;6490620;31;8880;-61
2022/03/17 17:01:41;;;;;;;;;27.25;19.75;;;;;;;;6492246;39;8969;-62
2022/03/17 17:07:45;;;;;;;;;20.25;16.50;;;;;;;;6492045;39;8913;-64
2022/03/17 17:13:47;;;;;;;;;20.00;19.50;;;;;;;;6490727;39;8927;-62
2022/03/17 17:19:51;;;;;;;;;20.25;20.25;;;;;;;;6492542;31;9178;-63
2022/03/17 17:32:16;;;;;;;;;32.75;30.50;;;;;;;;6491493;31;9015;-63
2022/03/17 17:38:22;;;;;;;;;36.00;32.00;;;;;;;;6490338;39;8978;-63
2022/03/17 17:44:26;;;;;;;;;24.50;21.50;;;;;;;;6490862;46;9020;-64
2022/03/17 17:50:30;;;;;;;;;26.75;23.50;;;;;;;;6490268;31;8927;-63
2022/03/17 17:56:35;;;;;;;;;34.00;24.75;;;;;;;;6490868;39;8863;-63
2022/03/17 18:02:40;;;;;;;;;28.75;24.25;;;;;;;;6491215;39;9560;-62
2022/03/17 18:08:44;;;;;;;;;36.75;29.50;;;;;;;;6491316;39;8888;-63
2022/03/17 18:14:48;;;;;;;;;42.75;36.00;;;;;;;;6490414;39;8972;-63
2022/03/17 18:20:53;;;;;;;;;32.00;28.25;;;;;;;;6490439;47;8861;-63
2022/03/17 18:27:00;;;;;;;;;34.25;26.75;;;;;;;;6490988;46;8872;-62
2022/03/17 18:33:02;;;;;;;;;27.00;25.00;;;;;;;;6492938;46;8868;-63
2022/03/17 18:39:05;;;;;;;;;27.50;23.75;;;;;;;;6492427;46;8885;-63
2022/03/17 18:45:11;;;;;;;;;41.50;32.75;;;;;;;;6493301;39;9764;-63
2022/03/17 18:51:15;;;;;;;;;32.50;32.00;;;;;;;;6492167;39;9646;-62
2022/03/17 18:57:17;;;;;;;;;34.00;32.00;;;;;;;;6491770;46;8944;-63
2022/03/17 19:03:21;;;;;;;;;40.50;33.25;;;;;;;;6494757;31;8947;-64
2022/03/17 19:09:23;;;;;;;;;34.50;31.00;;;;;;;;6492459;39;8861;-64
2022/03/17 19:15:27;;;;;;;;;43.50;37.00;;;;;;;;6491566;39;8970;-63
2022/03/17 19:21:43;;;;;;;;;39.25;37.75;;;;;;;;6491977;31;9151;-64
2022/03/17 19:27:46;;;;;;;;;36.75;33.00;;;;;;;;6492669;39;8901;-63
2022/03/17 19:33:49;;;;;;;;;35.00;31.00;;;;;;;;6492521;46;8861;-62
2022/03/17 19:39:51;;;;;;;;;33.67;30.67;;;;;;;;6491404;39;8886;-64
2022/03/17 19:45:55;;;;;;;;;28.00;28.00;;;;;;;;6492271;46;8877;-62
2022/03/17 19:51:59;;;;;;;;;26.33;22.67;;;;;;;;6492777;31;8967;-63
2022/03/17 19:58:02;;;;;;;;;37.00;32.33;;;;;;;;6492478;39;9056;-64
2022/03/17 20:04:06;;;;;;;;;37.00;32.33;;;;;;;;6492838;39;9035;-63
2022/03/17 20:10:10;;;;;;;;;31.00;31.00;;;;;;;;6490620;46;8912;-63
2022/03/17 20:16:27;;;;;;;;;38.33;34.00;;;;;;;;6491741;39;8928;-63
2022/03/17 20:22:34;;;;;;;;;34.00;34.00;;;;;;;;6491400;39;8877;-64
2022/03/17 20:28:42;;;;;;;;;36.00;35.67;;;;;;;;6492401;31;8936;-63
2022/03/17 20:34:50;;;;;;;;;33.00;30.25;;;;;;;;6491674;46;8877;-64
2022/03/17 20:41:04;;;;;;;;;34.75;28.50;;;;;;;;6492375;31;9014;-62
2022/03/17 20:47:06;;;;;;;;;32.33;31.67;;;;;;;;6491046;31;9524;-63
2022/03/17 20:53:10;;;;;;;;;34.00;27.50;;;;;;;;6491322;46;8939;-64
2022/03/17 20:59:12;;;;;;;;;36.75;35.50;;;;;;;;6492761;31;9023;-62
2022/03/17 21:05:16;;;;;;;;;33.75;31.50;;;;;;;;6492128;39;8865;-62
2022/03/17 21:11:20;;;;;;;;;36.00;29.00;;;;;;;;6491666;39;8888;-63
2022/03/17 21:17:22;;;;;;;;;32.00;26.75;;;;;;;;6490784;46;8944;-62
2022/03/17 21:23:25;;;;;;;;;21.50;21.50;;;;;;;;6491908;39;8967;-62
2022/03/17 21:29:27;;;;;;;;;25.00;21.67;;;;;;;;6490811;39;8884;-64
2022/03/17 21:35:32;;;;;;;;;23.33;23.33;;;;;;;;6491193;39;9202;-64
2022/03/17 21:41:35;;;;;;;;;27.00;24.00;;;;;;;;6491243;46;8889;-63
2022/03/17 21:47:38;;;;;;;;;25.00;24.00;;;;;;;;6491275;46;8865;-63
2022/03/17 21:53:41;;;;;;;;;26.00;24.33;;;;;;;;6491544;39;8939;-65
2022/03/17 21:59:43;;;;;;;;;24.33;21.33;;;;;;;;6491713;46;8935;-62
2022/03/17 22:05:46;;;;;;;;;22.25;20.00;;;;;;;;6492158;39;8896;-62
2022/03/17 22:11:49;;;;;;;;;21.33;18.67;;;;;;;;6492779;46;8871;-62
2022/03/17 22:17:53;;;;;;;;;20.33;18.33;;;;;;;;6493329;31;8928;-62
2022/03/17 22:23:56;;;;;;;;;24.67;21.00;;;;;;;;6492946;46;8898;-62
2022/03/17 22:30:01;;;;;;;;;18.00;18.00;;;;;;;;6492045;46;8978;-63
2022/03/17 22:36:10;;;;;;;;;19.67;19.67;;;;;;;;6492927;46;8868;-63
2022/03/17 22:42:12;;;;;;;;;22.67;18.33;;;;;;;;6493148;39;8888;-62
2022/03/17 22:48:15;;;;;;;;;24.33;21.67;;;;;;;;6492989;39;8847;-62
2022/03/17 22:54:18;;;;;;;;;25.67;22.33;;;;;;;;6492603;31;8886;-63
2022/03/17 23:00:22;;;;;;;;;18.67;16.00;;;;;;;;6493100;39;8942;-63
2022/03/17 23:06:25;;;;;;;;;22.00;22.00;;;;;;;;6491873;46;9091;-63
2022/03/17 23:12:27;;;;;;;;;22.67;21.33;;;;;;;;6492307;31;9033;-61
2022/03/17 23:18:31;;;;;;;;;28.33;26.00;;;;;;;;6490997;39;8866;-63
2022/03/17 23:24:34;;;;;;;;;31.00;27.33;;;;;;;;6490895;46;8981;-63
2022/03/17 23:30:41;;;;;;;;;28.33;27.67;;;;;;;;6491392;46;8875;-64
2022/03/17 23:36:44;;;;;;;;;27.00;24.33;;;;;;;;6491499;39;8878;-64
2022/03/17 23:42:50;;;;;;;;;28.00;27.67;;;;;;;;6491556;39;8881;-63
2022/03/17 23:48:54;;;;;;;;;30.33;23.33;;;;;;;;6490879;39;9551;-63
2022/03/17 23:55:01;;;;;;;;;32.33;28.00;;;;;;;;6491181;39;8936;-62
